createdAt,value
2023-02-19T00:03:07.724Z,100625.50
2023-02-19T00:08:09.322Z,100603.91
2023-02-19T00:13:10.988Z,100603.09
2023-02-19T00:18:15.104Z,100608.31
2023-02-19T00:23:16.688Z,100602.97
2023-02-19T00:28:18.328Z,100599.56
2023-02-19T00:33:19.991Z,100606.59
2023-02-19T00:38:21.677Z,100618.50
2023-02-19T00:43:23.300Z,100607.47
2023-02-19T00:48:24.876Z,100606.56
2023-02-19T00:53:26.862Z,100601.94
2023-02-19T00:58:28.560Z,100596.16
2023-02-19T01:03:30.249Z,100589.31
2023-02-19T01:08:33.098Z,100598.72
2023-02-19T01:13:36.549Z,100586.56
2023-02-19T01:18:38.539Z,100595.84
2023-02-19T01:23:40.548Z,100573.19
2023-02-19T01:28:42.688Z,100568.97
2023-02-19T01:33:46.587Z,100563.75
2023-02-19T01:38:51.426Z,100550.69
2023-02-19T01:44:12.203Z,100538.00
2023-02-19T01:49:18.632Z,100544.19
2023-02-19T01:54:23.893Z,100555.06
2023-02-19T01:59:28.263Z,100531.03
2023-02-19T02:04:32.043Z,100550.66
2023-02-19T02:09:52.216Z,100530.91
2023-02-19T02:14:53.728Z,100462.16
2023-02-19T02:20:18.987Z,100480.59
2023-02-19T02:25:59.242Z,100522.38
2023-02-19T02:31:14.122Z,100521.50
2023-02-19T02:36:27.654Z,100535.22
2023-02-19T02:41:29.766Z,100523.34
2023-02-19T02:46:36.857Z,100535.38
2023-02-19T02:51:44.102Z,100538.75
2023-02-19T02:56:52.822Z,100557.78
2023-02-19T03:02:11.782Z,100577.34
2023-02-19T03:07:13.655Z,100597.19
2023-02-19T03:12:37.570Z,100607.56
2023-02-19T03:18:05.195Z,100625.38
2023-02-19T03:23:09.153Z,100633.09
2023-02-19T03:28:13.852Z,100640.66
2023-02-19T03:33:25.088Z,100655.25
2023-02-19T03:38:55.020Z,100656.19
2023-02-19T03:44:12.577Z,100667.44
2023-02-19T03:49:42.517Z,100690.59
2023-02-19T03:55:06.353Z,100697.28
2023-02-19T04:00:16.951Z,100705.25
2023-02-19T04:05:26.421Z,100724.00
2023-02-19T04:10:30.079Z,100729.38
2023-02-19T04:15:37.168Z,100733.28
2023-02-19T04:20:42.260Z,100742.97
2023-02-19T04:25:47.436Z,100741.13
2023-02-19T04:30:49.098Z,100759.84
2023-02-19T04:35:50.726Z,100758.34
2023-02-19T04:40:52.341Z,100767.63
2023-02-19T04:45:53.944Z,100763.34
2023-02-19T04:50:55.988Z,100769.97
2023-02-19T04:55:57.497Z,100764.28
2023-02-19T05:01:00.266Z,100780.31
2023-02-19T05:06:06.729Z,100776.47
2023-02-19T05:11:11.635Z,100777.59
2023-02-19T05:16:16.156Z,100778.75
2023-02-19T05:21:19.132Z,100799.63
2023-02-19T05:26:23.264Z,100802.00
2023-02-19T05:31:25.333Z,100822.31
2023-02-19T05:36:28.041Z,100812.69
2023-02-19T05:41:30.910Z,100801.25
2023-02-19T05:46:32.704Z,100798.66
2023-02-19T05:51:34.252Z,100806.44
2023-02-19T05:56:39.021Z,100812.75
2023-02-19T06:01:40.568Z,100825.78
2023-02-19T06:06:43.067Z,100831.97
2023-02-19T06:11:44.922Z,100847.59
2023-02-19T06:16:46.501Z,100856.16
2023-02-19T06:21:50.795Z,100874.78
2023-02-19T06:26:52.538Z,100885.59
2023-02-19T06:31:54.142Z,100886.97
2023-02-19T06:36:57.690Z,100905.25
2023-02-19T06:41:59.446Z,100916.56
2023-02-19T06:47:01.068Z,100916.56
2023-02-19T06:52:06.387Z,100910.38
2023-02-19T06:57:08.181Z,100930.09
2023-02-19T07:02:12.086Z,100918.94
2023-02-19T07:07:13.684Z,100922.91
2023-02-19T07:12:15.275Z,100943.72
2023-02-19T07:17:16.884Z,100952.69
2023-02-19T07:22:18.458Z,100960.41
2023-02-19T07:27:19.968Z,100968.72
2023-02-19T07:32:21.488Z,100973.56
2023-02-19T07:37:23.046Z,100984.69
2023-02-19T07:42:24.681Z,101003.97
2023-02-19T07:47:26.205Z,101000.56
2023-02-19T07:52:28.300Z,100995.94
2023-02-19T07:57:31.289Z,100985.53
2023-02-19T08:02:51.540Z,100978.75
2023-02-19T08:07:53.251Z,100973.53
2023-02-19T08:13:18.022Z,100993.06
2023-02-19T08:18:24.962Z,100996.38
2023-02-19T08:23:27.829Z,101004.50
2023-02-19T08:28:30.471Z,100998.41
2023-02-19T08:33:32.679Z,101019.91
2023-02-19T08:38:36.019Z,101033.47
2023-02-19T08:43:50.927Z,101030.28
2023-02-19T08:49:01.995Z,101035.09
2023-02-19T08:54:04.377Z,101049.25
2023-02-19T08:59:05.998Z,101073.03
2023-02-19T09:04:10.107Z,101068.53
2023-02-19T09:09:11.761Z,101077.06
2023-02-19T09:14:13.364Z,101083.56
2023-02-19T09:19:14.995Z,101086.72
2023-02-19T09:24:16.633Z,101087.53
2023-02-19T09:29:18.537Z,101092.50
2023-02-19T09:34:22.346Z,101121.47
2023-02-19T09:39:23.934Z,101109.59
2023-02-19T09:44:32.891Z,101119.38
2023-02-19T09:49:37.693Z,101160.13
2023-02-19T09:54:40.668Z,101219.34
2023-02-19T09:59:48.520Z,101184.00
2023-02-19T10:04:51.413Z,101218.97
2023-02-19T10:10:03.510Z,101195.75
2023-02-19T10:15:18.005Z,101217.75
2023-02-19T10:20:24.709Z,101223.31
2023-02-19T10:25:26.785Z,101259.09
2023-02-19T10:30:31.920Z,101281.28
2023-02-19T10:35:37.401Z,101278.66
2023-02-19T10:40:45.510Z,101300.56
2023-02-19T10:45:49.301Z,101308.84
2023-02-19T10:50:58.272Z,101345.31
2023-02-19T10:56:09.298Z,101351.00
2023-02-19T11:01:20.690Z,101390.41
2023-02-19T11:06:26.478Z,101394.00
2023-02-19T11:11:34.879Z,101413.03
2023-02-19T11:16:40.870Z,101419.13
2023-02-19T11:21:42.402Z,101412.72
2023-02-19T11:26:45.050Z,101429.22
2023-02-19T11:31:46.647Z,101421.28
2023-02-19T11:37:08.266Z,101453.69
2023-02-19T11:42:15.242Z,101463.59
2023-02-19T11:47:25.943Z,101460.84
2023-02-19T11:53:00.385Z,101491.16
2023-02-19T11:58:33.050Z,101526.69
2023-02-19T12:03:49.986Z,101515.47
2023-02-19T12:09:03.399Z,101482.94
2023-02-19T12:14:38.369Z,101508.22
2023-02-19T12:19:59.302Z,101475.09
2023-02-19T12:25:39.742Z,101484.53
2023-02-19T12:31:28.894Z,101473.31
2023-02-19T12:36:50.837Z,101474.78
2023-02-19T12:42:09.583Z,101463.97
2023-02-19T12:47:21.276Z,101462.81
2023-02-19T12:52:28.238Z,101448.97
2023-02-19T12:57:37.091Z,101481.47
2023-02-19T13:02:45.048Z,101476.84
2023-02-19T13:07:55.840Z,101476.84
2023-02-19T13:13:01.589Z,101454.25
2023-02-19T13:18:07.597Z,101448.59
2023-02-19T13:23:46.829Z,101471.66
2023-02-19T13:29:07.043Z,101482.81
2023-02-19T13:34:29.830Z,101537.38
2023-02-19T13:39:31.782Z,101542.03
2023-02-19T13:44:34.486Z,101550.34
2023-02-19T13:49:42.078Z,101558.88
2023-02-19T13:54:43.760Z,101536.72
2023-02-19T13:59:46.375Z,101540.16
2023-02-19T14:04:55.600Z,101548.16
2023-02-19T14:09:58.624Z,101550.09
2023-02-19T14:15:40.603Z,101558.13
2023-02-19T14:20:45.884Z,101570.91
2023-02-19T14:25:58.289Z,101575.84
2023-02-19T14:31:17.891Z,101573.97
2023-02-19T14:36:45.203Z,101580.44
2023-02-19T14:41:57.208Z,101551.38
2023-02-19T14:47:32.201Z,101523.31
2023-02-19T14:52:43.501Z,101547.41
2023-02-19T14:57:47.891Z,101596.19
2023-02-19T15:02:51.464Z,101636.84
2023-02-19T15:07:56.845Z,101659.47
2023-02-19T15:13:01.380Z,101638.75
2023-02-19T15:18:05.141Z,101674.50
2023-02-19T15:23:07.944Z,101690.19
2023-02-19T15:28:30.604Z,101684.25
2023-02-19T15:33:32.352Z,101693.03
2023-02-19T15:38:34.436Z,101697.00
2023-02-19T15:43:44.490Z,101692.88
2023-02-19T15:48:56.731Z,101701.25
2023-02-19T15:54:07.639Z,101671.09
2023-02-19T15:59:40.349Z,101660.41
2023-02-19T16:04:44.070Z,101665.41
2023-02-19T16:09:45.622Z,101685.19
2023-02-19T16:14:49.318Z,101686.09
2023-02-19T16:19:59.978Z,101688.13
2023-02-19T16:25:04.696Z,101697.53
2023-02-19T16:30:29.437Z,101689.88
2023-02-19T16:35:42.076Z,101688.56
2023-02-19T16:40:50.852Z,101692.88
2023-02-19T16:45:52.640Z,101685.13
2023-02-19T16:50:54.602Z,101679.94
2023-02-19T16:55:56.542Z,101679.03
2023-02-19T17:01:01.880Z,101687.69
2023-02-19T17:06:03.662Z,101686.66
2023-02-19T17:11:10.691Z,101680.06
2023-02-19T17:16:25.080Z,101677.25
2023-02-19T17:21:29.237Z,101665.09
2023-02-19T17:26:32.502Z,101668.25
2023-02-19T17:31:34.321Z,101683.88
2023-02-19T17:36:38.023Z,101682.16
2023-02-19T17:41:39.697Z,101680.63
2023-02-19T17:46:42.123Z,101674.13
2023-02-19T17:51:43.742Z,101671.72
2023-02-19T17:56:47.061Z,101688.03
2023-02-19T18:01:48.628Z,101722.38
2023-02-19T18:06:50.208Z,101752.56
2023-02-19T18:11:51.715Z,101791.75
2023-02-19T18:16:53.311Z,101780.22
2023-02-19T18:21:54.822Z,101790.94
2023-02-19T18:26:56.478Z,101808.19
2023-02-19T18:31:58.321Z,101818.63
2023-02-19T18:37:02.022Z,101839.97
2023-02-19T18:42:03.750Z,101838.28
2023-02-19T18:47:07.047Z,101837.41
2023-02-19T18:52:08.563Z,101849.59
2023-02-19T18:57:10.145Z,101851.06
2023-02-19T19:02:12.390Z,101843.25
2023-02-19T19:07:14.090Z,101848.31
2023-02-19T19:12:16.154Z,101845.44
2023-02-19T19:17:17.733Z,101840.44
2023-02-19T19:22:22.769Z,101836.34
2023-02-19T19:27:24.298Z,101855.69
2023-02-19T19:32:25.914Z,101867.84
2023-02-19T19:37:29.256Z,101860.28
2023-02-19T19:42:30.917Z,101866.44
2023-02-19T19:47:32.560Z,101871.09
2023-02-19T19:52:34.152Z,101868.03
2023-02-19T19:57:35.773Z,101868.81
2023-02-19T20:02:37.313Z,101903.09
2023-02-19T20:07:39.208Z,101957.41
2023-02-19T20:12:40.759Z,101954.84
2023-02-19T20:17:42.513Z,101953.56
2023-02-19T20:22:44.388Z,101948.25
2023-02-19T20:27:49.960Z,101938.94
2023-02-19T20:32:51.811Z,101921.88
2023-02-19T20:37:54.503Z,101895.53
2023-02-19T20:42:56.764Z,101871.19
2023-02-19T20:47:58.443Z,101890.16
2023-02-19T20:53:00.157Z,101883.44
2023-02-19T20:58:02.040Z,101899.31
2023-02-19T21:03:04.016Z,101902.47
2023-02-19T21:08:05.597Z,101900.03
2023-02-19T21:13:07.116Z,101894.13
2023-02-19T21:18:08.737Z,101891.59
2023-02-19T21:23:10.386Z,101864.25
2023-02-19T21:28:12.596Z,101847.44
2023-02-19T21:33:14.794Z,101846.34
2023-02-19T21:38:16.471Z,101822.44
2023-02-19T21:43:18.061Z,101828.84
2023-02-19T21:48:19.639Z,101835.94
2023-02-19T21:53:21.264Z,101825.50
2023-02-19T21:58:23.140Z,101823.31
2023-02-19T22:03:26.464Z,101834.88
2023-02-19T22:08:27.994Z,101841.81
2023-02-19T22:13:29.681Z,101834.16
2023-02-19T22:18:31.230Z,101832.72
2023-02-19T22:23:32.991Z,101819.66
2023-02-19T22:28:34.484Z,101824.19
2023-02-19T22:33:36.156Z,101816.91
2023-02-19T22:38:37.704Z,101824.22
2023-02-19T22:43:39.298Z,101826.00
2023-02-19T22:48:40.998Z,101808.75
2023-02-19T22:53:46.823Z,101799.13
2023-02-19T22:58:48.632Z,101772.81
2023-02-19T23:03:50.148Z,101779.47
2023-02-19T23:08:53.428Z,101758.91
2023-02-19T23:13:55.190Z,101734.72
2023-02-19T23:18:56.856Z,101728.50
2023-02-19T23:23:58.789Z,101704.75
2023-02-19T23:29:00.770Z,101689.34
2023-02-19T23:34:02.432Z,101679.75
2023-02-19T23:39:04.238Z,101671.47
2023-02-19T23:44:06.021Z,101674.72
2023-02-19T23:49:07.611Z,101674.97
2023-02-19T23:54:09.267Z,101668.28
2023-02-19T23:59:10.832Z,101670.75
